Time;durP1;ratioP1;P1;durP2;ratioP2;P2;SDS_P1;SDS_P2;PMS_P1;PMS_P2;Temp;Humidity;BMP_temperature;BMP_pressure;BME280_temperature;BME280_humidity;BME280_pressure;Samples;Min_cycle;Max_cycle;Signal;HPM_P1;HPM_P2
2021/04/10 00:00:14;;;;;;;10.65;3.97;;;2.10;99.90;;;;;;4921057;29;20040;-96
2021/04/10 00:02:39;;;;;;;10.82;4.82;;;2.10;99.90;;;;;;4921997;29;20042;-95
2021/04/10 00:05:07;;;;;;;11.50;5.63;;;2.10;99.90;;;;;;4955674;29;20122;-94
2021/04/10 00:07:33;;;;;;;9.70;4.78;;;2.10;99.90;;;;;;4956124;29;20023;-95
2021/04/10 00:09:59;;;;;;;14.40;6.20;;;2.10;99.90;;;;;;4955994;29;20421;-94
2021/04/10 00:12:25;;;;;;;13.27;5.72;;;2.10;99.90;;;;;;4956176;29;20464;-94
2021/04/10 00:14:50;;;;;;;14.32;6.07;;;2.10;99.90;;;;;;4957113;28;20436;-95
2021/04/10 00:17:16;;;;;;;12.55;5.72;;;2.00;99.90;;;;;;4960461;29;20031;-94
2021/04/10 00:19:42;;;;;;;13.57;6.05;;;2.00;99.90;;;;;;4963336;29;20061;-94
2021/04/10 00:22:08;;;;;;;14.63;6.25;;;2.00;99.90;;;;;;4967395;29;20047;-94
2021/04/10 00:24:34;;;;;;;14.73;5.97;;;1.90;99.90;;;;;;4965020;29;20043;-94
2021/04/10 00:26:59;;;;;;;9.07;4.88;;;1.90;99.90;;;;;;4964110;29;20041;-94
2021/04/10 00:29:25;;;;;;;16.30;5.43;;;1.80;99.90;;;;;;4961532;29;20058;-94
2021/04/10 00:31:51;;;;;;;12.65;4.75;;;1.90;99.90;;;;;;4944940;29;20031;-94
2021/04/10 00:34:16;;;;;;;19.60;5.90;;;1.80;99.90;;;;;;4961122;29;20121;-94
2021/04/10 00:36:42;;;;;;;12.40;5.88;;;1.90;99.90;;;;;;4960982;29;20043;-95
2021/04/10 00:39:08;;;;;;;10.00;5.47;;;1.80;99.90;;;;;;4961400;29;20035;-94
2021/04/10 00:41:34;;;;;;;15.80;6.50;;;1.80;99.90;;;;;;4962031;29;20027;-94
2021/04/10 00:44:00;;;;;;;11.30;6.55;;;1.80;99.90;;;;;;4961894;29;20028;-95
2021/04/10 00:46:26;;;;;;;12.02;5.57;;;1.80;99.90;;;;;;4941708;29;20032;-94
2021/04/10 00:48:53;;;;;;;13.93;6.57;;;1.80;99.90;;;;;;4943002;29;20070;-95
2021/04/10 00:51:19;;;;;;;18.60;7.70;;;1.70;99.90;;;;;;4942161;29;20115;-95
2021/04/10 00:53:45;;;;;;;15.70;7.47;;;1.70;99.90;;;;;;4942276;29;20071;-95
2021/04/10 00:56:11;;;;;;;25.08;9.27;;;1.70;99.90;;;;;;4945275;29;20028;-94
2021/04/10 00:58:37;;;;;;;15.60;7.68;;;1.60;99.90;;;;;;4948951;29;20111;-95
2021/04/10 01:01:04;;;;;;;21.75;10.43;;;1.40;99.90;;;;;;4944403;29;20139;-94
2021/04/10 01:03:30;;;;;;;17.63;7.97;;;1.40;99.90;;;;;;4941229;29;20028;-94
2021/04/10 01:05:56;;;;;;;21.90;7.97;;;1.30;99.90;;;;;;4941497;29;20050;-94
2021/04/10 01:08:22;;;;;;;16.13;7.13;;;1.30;99.90;;;;;;4942365;29;20152;-94
2021/04/10 01:10:48;;;;;;;19.20;7.63;;;1.30;99.90;;;;;;4945530;29;20047;-94
2021/04/10 01:13:41;;;;;;;16.35;7.65;;;1.30;99.90;;;;;;4943134;29;20126;-95
2021/04/10 01:16:16;;;;;;;11.50;6.53;;;1.30;99.90;;;;;;4943503;29;20032;-94
2021/04/10 01:19:15;;;;;;;16.90;7.47;;;1.20;99.90;;;;;;4943389;29;20038;-95
2021/04/10 01:21:51;;;;;;;19.45;7.32;;;1.30;99.90;;;;;;4945892;29;20027;-94
2021/04/10 01:24:32;;;;;;;16.52;8.30;;;1.30;99.90;;;;;;4960402;29;20031;-95
2021/04/10 01:27:20;;;;;;;18.75;8.50;;;1.30;99.90;;;;;;4959872;28;20060;-95
2021/04/10 01:29:52;;;;;;;21.67;9.73;;;1.40;99.90;;;;;;4960179;29;20071;-94
2021/04/10 01:32:19;;;;;;;23.00;8.60;;;1.40;99.90;;;;;;4963126;29;20039;-94
2021/04/10 01:34:54;;;;;;;18.02;8.68;;;1.40;99.90;;;;;;4968050;29;20032;-95
2021/04/10 01:37:26;;;;;;;19.05;8.88;;;1.40;99.90;;;;;;4958855;29;20038;-96
2021/04/10 01:39:52;;;;;;;19.60;9.70;;;1.40;99.90;;;;;;4957739;29;20082;-95
2021/04/10 01:42:23;;;;;;;17.70;9.20;;;1.50;99.90;;;;;;4958597;29;20497;-95
2021/04/10 01:44:50;;;;;;;23.45;10.38;;;1.50;99.90;;;;;;4959159;29;20496;-93
2021/04/10 01:47:18;;;;;;;22.33;10.38;;;1.50;99.90;;;;;;4959303;29;20027;-95
2021/04/10 01:49:46;;;;;;;23.45;10.60;;;1.40;99.90;;;;;;4956929;29;20028;-94
2021/04/10 01:52:13;;;;;;;21.95;10.48;;;1.40;99.90;;;;;;4943289;29;20397;-94
2021/04/10 01:54:40;;;;;;;28.05;11.00;;;1.50;99.90;;;;;;4943231;29;20019;-94
2021/04/10 01:57:07;;;;;;;23.75;10.05;;;1.50;99.90;;;;;;4942414;29;20031;-94
2021/04/10 01:59:35;;;;;;;25.50;11.68;;;1.50;99.90;;;;;;4943115;29;20042;-94
2021/04/10 02:02:03;;;;;;;33.15;13.02;;;1.50;99.90;;;;;;4942986;29;20079;-95
2021/04/10 02:04:34;;;;;;;28.90;11.65;;;1.50;99.90;;;;;;4944826;29;20042;-94
2021/04/10 02:07:01;;;;;;;30.40;11.10;;;1.50;99.90;;;;;;4945275;29;20097;-94
2021/04/10 02:09:28;;;;;;;24.92;10.70;;;1.60;99.90;;;;;;4943901;29;20077;-94
2021/04/10 02:11:54;;;;;;;20.30;10.18;;;1.60;99.90;;;;;;4941760;29;20031;-95
2021/04/10 02:14:21;;;;;;;23.90;11.50;;;1.60;99.90;;;;;;4941554;29;20053;-95
2021/04/10 02:16:47;;;;;;;24.55;12.15;;;1.60;99.90;;;;;;4940928;29;20055;-94
2021/04/10 02:19:15;;;;;;;21.70;10.35;;;1.70;99.90;;;;;;4939157;29;20073;-93
2021/04/10 02:21:41;;;;;;;22.35;11.57;;;1.70;99.90;;;;;;4939830;29;20023;-94
2021/04/10 02:24:09;;;;;;;24.75;10.95;;;1.70;99.90;;;;;;4939958;29;20105;-94
2021/04/10 02:26:34;;;;;;;21.88;10.50;;;1.70;99.90;;;;;;4939932;29;20027;-94
2021/04/10 02:29:00;;;;;;;32.25;13.25;;;1.60;99.90;;;;;;4939919;29;20401;-94
2021/04/10 02:31:54;;;;;;;21.88;9.73;;;1.60;99.90;;;;;;4939395;29;20039;-95
2021/04/10 02:34:23;;;;;;;28.60;12.60;;;1.50;99.90;;;;;;4955902;29;20082;-94
2021/04/10 02:36:52;;;;;;;33.58;12.50;;;1.50;99.90;;;;;;4941074;28;20023;-94
2021/04/10 02:39:19;;;;;;;28.00;11.27;;;1.50;99.90;;;;;;4941238;29;20504;-94
2021/04/10 02:41:49;;;;;;;28.60;11.55;;;1.60;99.90;;;;;;4940969;29;20031;-94
2021/04/10 02:44:20;;;;;;;22.13;11.20;;;1.60;99.90;;;;;;4941164;29;20035;-95
2021/04/10 02:46:49;;;;;;;26.17;12.65;;;1.60;99.90;;;;;;4941047;29;20036;-94
2021/04/10 02:49:19;;;;;;;28.25;11.65;;;1.70;99.90;;;;;;4940208;29;20031;-95
2021/04/10 02:51:49;;;;;;;25.75;11.95;;;1.70;99.90;;;;;;4941294;29;20039;-94
2021/04/10 02:54:20;;;;;;;28.75;12.48;;;1.80;99.90;;;;;;4941171;29;20441;-94
2021/04/10 02:57:11;;;;;;;26.88;12.02;;;1.80;99.90;;;;;;4940846;29;20126;-95
2021/04/10 02:59:43;;;;;;;30.40;12.38;;;1.80;99.90;;;;;;4948539;29;20047;-94
2021/04/10 03:02:12;;;;;;;28.23;12.20;;;1.70;99.90;;;;;;4957928;29;20485;-94
2021/04/10 03:04:40;;;;;;;29.48;11.63;;;1.70;99.90;;;;;;4939991;29;20039;-95
2021/04/10 03:07:08;;;;;;;25.63;11.30;;;1.80;99.90;;;;;;4938531;29;20091;-93
2021/04/10 03:09:41;;;;;;;23.48;11.65;;;1.80;99.90;;;;;;4958185;29;20075;-94
2021/04/10 03:12:09;;;;;;;29.35;12.52;;;1.80;99.90;;;;;;4959180;29;20034;-94
2021/04/10 03:14:35;;;;;;;33.22;12.48;;;1.80;99.90;;;;;;4959564;29;20058;-93
2021/04/10 03:17:02;;;;;;;26.55;11.98;;;1.80;99.90;;;;;;4941750;29;20027;-94
2021/04/10 03:19:30;;;;;;;25.65;11.00;;;1.80;99.90;;;;;;4957758;29;20050;-95
2021/04/10 03:21:55;;;;;;;25.75;11.73;;;1.90;99.90;;;;;;4940328;29;20019;-94
2021/04/10 03:24:22;;;;;;;29.88;12.25;;;1.90;99.90;;;;;;4939602;29;20034;-94
2021/04/10 03:26:47;;;;;;;28.58;11.30;;;1.90;99.90;;;;;;4939506;29;20054;-94
2021/04/10 03:29:14;;;;;;;29.00;12.48;;;2.00;99.90;;;;;;4956876;29;20071;-95
2021/04/10 03:31:40;;;;;;;23.60;11.90;;;2.00;99.90;;;;;;4939631;29;20504;-94
2021/04/10 03:34:06;;;;;;;27.48;12.18;;;2.00;99.90;;;;;;4939568;29;20134;-94
2021/04/10 03:36:33;;;;;;;28.27;12.45;;;2.00;99.90;;;;;;4939060;29;20031;-94
2021/04/10 03:38:59;;;;;;;22.70;11.25;;;2.00;99.90;;;;;;4938373;29;20031;-94
2021/04/10 03:41:25;;;;;;;25.33;12.05;;;2.00;99.90;;;;;;4939807;29;20460;-95
2021/04/10 03:43:51;;;;;;;27.48;12.30;;;2.00;99.90;;;;;;4939469;29;20038;-95
2021/04/10 03:46:16;;;;;;;29.25;13.57;;;2.00;99.90;;;;;;4940296;29;20031;-94
2021/04/10 03:48:42;;;;;;;36.33;13.90;;;1.90;99.90;;;;;;4941237;28;20029;-93
2021/04/10 03:51:08;;;;;;;28.55;12.77;;;1.90;99.90;;;;;;4939584;29;20058;-95
2021/04/10 03:53:33;;;;;;;34.35;14.00;;;1.90;99.90;;;;;;4941368;29;20035;-94
2021/04/10 03:55:59;;;;;;;29.95;12.95;;;1.90;99.90;;;;;;4943558;29;20047;-94
2021/04/10 03:58:25;;;;;;;26.13;12.52;;;1.90;99.90;;;;;;4940731;29;20532;-95
2021/04/10 04:00:50;;;;;;;25.60;13.50;;;1.90;99.90;;;;;;4939093;29;20408;-93
2021/04/10 04:03:16;;;;;;;24.35;12.32;;;1.90;99.90;;;;;;4938596;29;20026;-94
2021/04/10 04:05:42;;;;;;;34.83;15.60;;;2.00;99.90;;;;;;4937302;29;20034;-94
2021/04/10 04:08:07;;;;;;;31.95;15.18;;;2.00;99.90;;;;;;4955112;29;20035;-93
2021/04/10 04:10:33;;;;;;;29.98;13.68;;;2.00;99.90;;;;;;4954185;29;20055;-95
2021/04/10 04:12:58;;;;;;;32.85;14.48;;;2.00;99.90;;;;;;4954728;29;20042;-93
2021/04/10 04:15:24;;;;;;;38.65;14.52;;;2.10;99.90;;;;;;4956019;29;20397;-94
2021/04/10 04:17:50;;;;;;;35.40;15.63;;;2.10;99.90;;;;;;4955250;29;20043;-93
2021/04/10 04:20:16;;;;;;;33.78;14.90;;;2.10;99.90;;;;;;4955054;29;20075;-94
2021/04/10 04:22:41;;;;;;;32.15;14.70;;;2.10;99.90;;;;;;4956088;29;20027;-95
2021/04/10 04:25:08;;;;;;;36.15;15.05;;;2.10;99.90;;;;;;4956961;29;20032;-94
2021/04/10 04:27:35;;;;;;;30.90;13.95;;;2.10;99.90;;;;;;4956732;29;20071;-94
2021/04/10 04:30:06;;;;;;;38.25;15.07;;;2.10;99.90;;;;;;4953853;29;20468;-94
2021/04/10 04:32:31;;;;;;;33.92;15.52;;;2.10;99.90;;;;;;4954412;29;20032;-93
2021/04/10 04:34:57;;;;;;;32.05;13.82;;;2.10;99.90;;;;;;4954324;29;20415;-95
2021/04/10 04:37:23;;;;;;;37.78;15.18;;;2.10;99.90;;;;;;4954428;29;20090;-94
2021/04/10 04:39:49;;;;;;;34.10;15.30;;;2.00;99.90;;;;;;4954505;29;20449;-96
2021/04/10 04:42:15;;;;;;;30.13;14.35;;;2.10;99.90;;;;;;4954687;29;20059;-94
2021/04/10 04:44:41;;;;;;;45.30;16.45;;;2.10;99.90;;;;;;4953556;29;20392;-94
2021/04/10 04:47:06;;;;;;;39.17;16.02;;;2.10;99.90;;;;;;4946845;29;20083;-94
2021/04/10 04:49:32;;;;;;;38.50;15.18;;;2.20;99.90;;;;;;4938737;29;20066;-94
2021/04/10 04:51:58;;;;;;;37.55;15.52;;;2.20;99.90;;;;;;4939080;29;20425;-94
2021/04/10 04:54:23;;;;;;;38.08;16.45;;;2.20;99.90;;;;;;4956254;29;20035;-93
2021/04/10 04:56:49;;;;;;;29.75;14.95;;;2.20;99.90;;;;;;4939266;29;20027;-94
2021/04/10 04:59:16;;;;;;;35.22;15.82;;;2.20;99.90;;;;;;4938941;29;20099;-94
2021/04/10 05:01:41;;;;;;;24.67;12.20;;;2.20;99.90;;;;;;4940960;29;20452;-94
2021/04/10 05:04:08;;;;;;;37.92;15.57;;;2.20;99.90;;;;;;4942218;29;20027;-94
2021/04/10 05:06:33;;;;;;;27.15;11.68;;;2.10;99.90;;;;;;4942023;29;20031;-94
2021/04/10 05:08:59;;;;;;;37.60;16.38;;;2.10;99.90;;;;;;4942737;29;20114;-94
2021/04/10 05:11:25;;;;;;;42.95;18.33;;;2.10;99.90;;;;;;4946617;29;20130;-94
2021/04/10 05:13:51;;;;;;;42.63;15.70;;;2.10;99.90;;;;;;4956049;29;20481;-95
2021/04/10 05:16:17;;;;;;;44.45;16.67;;;2.10;99.90;;;;;;4935713;29;20038;-94
2021/04/10 05:18:43;;;;;;;26.42;12.07;;;2.00;99.90;;;;;;4926472;29;20035;-94
2021/04/10 05:21:09;;;;;;;31.30;13.63;;;2.00;99.90;;;;;;4923820;29;20024;-94
2021/04/10 05:23:36;;;;;;;31.77;14.70;;;2.00;99.90;;;;;;4932325;29;20027;-94
2021/04/10 05:26:03;;;;;;;29.35;13.00;;;2.00;99.90;;;;;;4929019;29;20474;-94
2021/04/10 05:28:28;;;;;;;33.13;13.20;;;2.00;99.90;;;;;;4937369;29;20027;-94
2021/04/10 05:30:54;;;;;;;35.25;14.30;;;2.10;99.90;;;;;;4928301;29;20039;-94
2021/04/10 05:33:20;;;;;;;24.13;10.52;;;2.10;99.90;;;;;;4936822;29;20028;-95
2021/04/10 05:35:46;;;;;;;27.60;12.82;;;2.10;99.90;;;;;;4930436;29;20579;-94
2021/04/10 05:38:12;;;;;;;23.17;11.80;;;2.10;99.90;;;;;;4937510;29;20062;-92
2021/04/10 05:40:38;;;;;;;29.83;13.13;;;2.10;99.90;;;;;;4927876;29;20036;-94
2021/04/10 05:43:04;;;;;;;25.25;12.85;;;2.10;99.90;;;;;;4934088;29;20035;-94
2021/04/10 05:45:29;;;;;;;22.85;9.88;;;2.00;99.90;;;;;;4939408;29;20023;-93
2021/04/10 05:47:55;;;;;;;23.58;12.43;;;2.00;99.90;;;;;;4932329;29;20055;-95
2021/04/10 05:50:21;;;;;;;21.15;11.57;;;2.00;99.90;;;;;;4934255;29;20051;-93
2021/04/10 05:52:47;;;;;;;23.00;11.88;;;2.00;99.90;;;;;;4929260;29;20023;-94
2021/04/10 05:55:13;;;;;;;24.40;12.20;;;2.00;99.90;;;;;;4932547;29;20046;-94
2021/04/10 05:57:39;;;;;;;23.27;11.45;;;2.00;99.90;;;;;;4941600;29;20035;-94
2021/04/10 06:00:05;;;;;;;23.48;12.27;;;2.00;99.90;;;;;;4932530;29;20138;-94
2021/04/10 06:02:32;;;;;;;30.33;12.63;;;2.00;99.90;;;;;;4941397;29;20031;-94
2021/04/10 06:04:57;;;;;;;19.27;10.23;;;2.00;99.90;;;;;;4947564;29;20083;-93
2021/04/10 06:07:23;;;;;;;25.42;11.70;;;2.10;99.90;;;;;;4946942;29;20027;-93
2021/04/10 06:09:49;;;;;;;24.95;12.32;;;2.10;99.90;;;;;;4935145;29;20059;-94
2021/04/10 06:12:15;;;;;;;23.10;12.15;;;2.10;99.90;;;;;;4939940;29;20091;-93
2021/04/10 06:14:40;;;;;;;24.48;12.82;;;2.20;99.90;;;;;;4939201;29;20122;-94
2021/04/10 06:17:06;;;;;;;34.60;13.45;;;2.20;99.90;;;;;;4938747;29;20122;-94
2021/04/10 06:19:32;;;;;;;24.55;12.23;;;2.30;99.90;;;;;;4924199;29;20043;-93
2021/04/10 06:21:57;;;;;;;24.80;11.57;;;2.30;99.90;;;;;;4936348;29;20028;-93
2021/04/10 06:24:23;;;;;;;26.52;14.32;;;2.40;99.90;;;;;;4937253;29;20123;-93
2021/04/10 06:26:49;;;;;;;29.02;13.75;;;2.40;99.90;;;;;;4944981;29;20455;-93
2021/04/10 06:29:14;;;;;;;30.60;14.73;;;2.50;99.90;;;;;;4945825;29;20078;-94
2021/04/10 06:31:41;;;;;;;33.83;15.20;;;2.50;99.90;;;;;;4953551;28;20015;-93
2021/04/10 06:34:07;;;;;;;33.13;15.57;;;2.50;99.90;;;;;;4973222;29;20045;-92
2021/04/10 06:36:33;;;;;;;26.45;13.10;;;2.60;99.90;;;;;;4937406;29;20047;-95
2021/04/10 06:38:58;;;;;;;44.78;16.90;;;2.60;99.90;;;;;;4921690;29;20024;-95
2021/04/10 06:41:24;;;;;;;31.92;15.27;;;2.60;99.90;;;;;;4924646;29;20520;-95
2021/04/10 06:43:50;;;;;;;32.10;15.27;;;2.70;99.90;;;;;;4928178;29;20500;-95
2021/04/10 06:46:16;;;;;;;31.67;15.60;;;2.70;99.90;;;;;;4924705;29;20119;-95
2021/04/10 06:48:44;;;;;;;33.58;16.08;;;2.80;99.90;;;;;;4935331;29;20034;-94
2021/04/10 06:51:13;;;;;;;30.63;14.82;;;2.90;99.90;;;;;;4941359;29;20038;-95
2021/04/10 06:53:43;;;;;;;36.10;15.82;;;2.90;99.90;;;;;;4939641;29;20039;-95
2021/04/10 06:56:12;;;;;;;26.50;14.10;;;3.00;99.90;;;;;;4938838;29;20027;-95
2021/04/10 06:59:05;;;;;;;29.27;14.20;;;3.00;99.90;;;;;;4942856;29;20024;-94
2021/04/10 07:01:31;;;;;;;31.27;14.40;;;3.10;99.90;;;;;;4948960;29;20044;-96
2021/04/10 07:03:56;;;;;;;31.38;13.65;;;3.20;99.90;;;;;;4922674;29;20050;-94
2021/04/10 07:06:22;;;;;;;29.38;14.60;;;3.20;99.90;;;;;;4928347;29;20023;-94
2021/04/10 07:08:48;;;;;;;28.05;13.77;;;3.20;99.90;;;;;;4936895;29;20083;-95
2021/04/10 07:11:15;;;;;;;21.83;12.20;;;3.30;99.90;;;;;;4924803;29;20039;-94
2021/04/10 07:13:44;;;;;;;26.42;14.18;;;3.30;99.90;;;;;;4921200;29;20036;-94
2021/04/10 07:16:11;;;;;;;27.23;15.43;;;3.40;99.90;;;;;;4934513;29;20504;-95
2021/04/10 07:18:37;;;;;;;33.63;17.15;;;3.40;99.90;;;;;;4936020;29;20027;-92
2021/04/10 07:21:13;;;;;;;32.72;18.20;;;3.50;99.90;;;;;;4948592;29;20482;-93
2021/04/10 07:23:49;;;;;;;31.98;15.80;;;3.60;99.90;;;;;;4935766;29;20032;-93
2021/04/10 07:26:16;;;;;;;33.53;17.85;;;3.70;99.90;;;;;;4935533;29;20032;-94
2021/04/10 07:28:42;;;;;;;35.13;18.92;;;3.80;99.90;;;;;;4935152;29;20028;-94
2021/04/10 07:31:10;;;;;;;38.53;19.20;;;3.90;99.90;;;;;;4950369;29;20084;-94
2021/04/10 07:33:40;;;;;;;35.47;18.90;;;4.00;99.90;;;;;;4948571;29;20080;-95
2021/04/10 07:36:08;;;;;;;35.35;18.00;;;4.10;99.90;;;;;;4931380;29;20028;-94
2021/04/10 07:38:40;;;;;;;36.40;19.65;;;4.10;99.90;;;;;;4934520;29;20024;-93
2021/04/10 07:41:14;;;;;;;39.65;19.58;;;4.20;99.90;;;;;;4933529;29;20028;-93
2021/04/10 07:43:43;;;;;;;33.38;17.08;;;4.30;99.90;;;;;;4946029;29;20423;-93
2021/04/10 07:46:23;;;;;;;35.75;18.15;;;4.30;99.90;;;;;;4926501;29;20024;-93
2021/04/10 07:49:09;;;;;;;28.80;14.13;;;4.30;99.90;;;;;;4927577;29;20094;-92
2021/04/10 07:51:37;;;;;;;25.98;14.32;;;4.40;99.90;;;;;;4926491;29;20498;-93
2021/04/10 07:54:22;;;;;;;24.85;12.98;;;4.30;99.90;;;;;;4932010;29;20051;-93
2021/04/10 07:56:55;;;;;;;25.13;12.85;;;4.40;99.90;;;;;;4940994;29;20508;-93
2021/04/10 07:59:20;;;;;;;20.08;12.55;;;4.40;99.90;;;;;;4928887;29;20439;-94
2021/04/10 08:01:46;;;;;;;24.10;10.35;;;4.50;99.90;;;;;;4927266;29;20067;-93
2021/04/10 08:04:14;;;;;;;24.98;12.23;;;4.50;99.90;;;;;;4928255;29;20048;-95
2021/04/10 08:07:00;;;;;;;22.42;13.00;;;4.50;99.90;;;;;;4944916;29;20067;-93
2021/04/10 08:09:30;;;;;;;23.88;12.25;;;4.50;99.90;;;;;;4950779;29;20046;-93
2021/04/10 08:11:57;;;;;;;24.50;12.82;;;4.60;99.90;;;;;;4950154;29;20032;-93
2021/04/10 08:14:23;;;;;;;21.20;12.60;;;4.70;99.90;;;;;;4936981;29;20114;-92
2021/04/10 08:16:50;;;;;;;19.65;12.25;;;4.80;99.90;;;;;;4953302;29;20051;-93
2021/04/10 08:19:28;;;;;;;21.90;12.05;;;4.90;99.90;;;;;;4952440;29;20035;-92
2021/04/10 08:21:55;;;;;;;19.70;10.75;;;5.00;99.90;;;;;;4937266;29;20027;-92
2021/04/10 08:24:21;;;;;;;20.63;10.73;;;5.10;99.90;;;;;;4930869;29;20082;-91
2021/04/10 08:26:56;;;;;;;25.80;10.23;;;5.20;99.90;;;;;;4937268;29;20031;-91
2021/04/10 08:29:23;;;;;;;13.40;7.72;;;5.30;99.90;;;;;;4952961;29;20066;-91
2021/04/10 08:31:50;;;;;;;17.02;8.70;;;5.50;99.90;;;;;;4951516;29;20027;-92
2021/04/10 08:34:16;;;;;;;13.38;7.80;;;5.60;99.90;;;;;;4932108;29;20035;-92
2021/04/10 08:36:45;;;;;;;12.50;7.75;;;5.70;99.90;;;;;;4954065;28;20066;-92
2021/04/10 08:39:13;;;;;;;13.98;7.32;;;5.70;99.90;;;;;;4934393;29;20029;-93
2021/04/10 08:41:40;;;;;;;12.02;7.03;;;5.80;99.90;;;;;;4954974;29;20027;-92
2021/04/10 08:44:12;;;;;;;13.30;6.38;;;5.90;99.90;;;;;;4939550;29;20030;-93
2021/04/10 08:46:41;;;;;;;11.27;6.15;;;6.00;99.90;;;;;;4938043;29;20035;-93
2021/04/10 08:49:07;;;;;;;12.13;6.45;;;6.00;99.90;;;;;;4940271;29;20031;-92
2021/04/10 08:51:39;;;;;;;15.27;4.90;;;6.10;99.90;;;;;;4933845;29;20179;-93
2021/04/10 08:54:09;;;;;;;7.68;4.47;;;6.10;99.90;;;;;;4954187;29;20035;-92
2021/04/10 08:56:35;;;;;;;9.02;4.28;;;6.20;99.90;;;;;;4959931;29;20038;-92
2021/04/10 08:59:09;;;;;;;10.82;4.45;;;6.20;99.90;;;;;;4946466;29;20051;-91
2021/04/10 09:01:36;;;;;;;11.10;5.03;;;6.30;99.90;;;;;;4945082;29;20057;-92
2021/04/10 09:04:02;;;;;;;9.18;4.60;;;6.30;99.90;;;;;;4955231;29;20020;-91
2021/04/10 09:06:31;;;;;;;9.63;4.70;;;6.40;99.90;;;;;;4952961;29;20091;-92
2021/04/10 09:09:12;;;;;;;8.93;3.60;;;6.50;99.90;;;;;;4937681;29;20485;-91
2021/04/10 09:11:43;;;;;;;6.22;3.88;;;6.50;99.90;;;;;;4950397;28;20035;-92
2021/04/10 09:14:10;;;;;;;7.78;4.18;;;6.60;99.90;;;;;;4940372;29;20027;-93
2021/04/10 09:16:51;;;;;;;14.25;4.72;;;6.70;99.90;;;;;;4948801;29;20028;-93
2021/04/10 09:19:23;;;;;;;8.90;4.68;;;6.80;99.90;;;;;;4934442;29;20043;-92
2021/04/10 09:21:50;;;;;;;7.03;3.92;;;6.80;99.90;;;;;;4931783;29;20034;-93
2021/04/10 09:24:28;;;;;;;7.00;2.83;;;7.10;99.90;;;;;;4938697;29;20027;-94
2021/04/10 09:27:24;;;;;;;8.25;2.97;;;7.20;99.60;;;;;;4952767;29;20110;-92
2021/04/10 09:29:59;;;;;;;9.90;3.05;;;7.40;98.90;;;;;;4935269;29;20027;-92
2021/04/10 09:32:32;;;;;;;11.07;2.65;;;7.50;98.30;;;;;;4937802;29;20031;-91
2021/04/10 09:35:06;;;;;;;5.20;2.78;;;7.60;97.60;;;;;;4937862;29;20382;-93
2021/04/10 09:37:32;;;;;;;7.88;3.65;;;7.60;96.40;;;;;;4935063;29;20027;-92
2021/04/10 09:40:17;;;;;;;7.10;3.28;;;7.60;96.10;;;;;;4949775;29;20037;-93
2021/04/10 09:45:27;;;;;;;6.93;2.78;;;7.50;95.90;;;;;;4954342;29;20214;-92
2021/04/10 09:47:55;;;;;;;6.05;2.40;;;7.60;95.60;;;;;;4939450;29;20561;-93
2021/04/10 09:50:39;;;;;;;14.60;3.13;;;7.60;95.40;;;;;;4937539;29;20043;-95
2021/04/10 09:53:29;;;;;;;9.82;4.07;;;7.60;95.10;;;;;;4954139;29;20467;-92
2021/04/10 09:56:10;;;;;;;12.55;3.38;;;7.70;94.90;;;;;;4935514;29;20068;-92
2021/04/10 09:58:47;;;;;;;6.97;3.60;;;7.70;94.90;;;;;;4954326;29;20054;-94
2021/04/10 10:01:22;;;;;;;6.80;3.90;;;7.70;94.80;;;;;;4945100;29;20039;-93
2021/04/10 10:03:50;;;;;;;7.30;4.10;;;7.70;94.50;;;;;;4939202;29;20114;-92
2021/04/10 10:06:30;;;;;;;8.73;3.40;;;7.80;94.40;;;;;;4940094;29;20031;-93
2021/04/10 10:08:59;;;;;;;9.73;6.75;;;7.80;94.40;;;;;;4939481;29;20092;-92
2021/04/10 10:11:24;;;;;;;9.02;6.93;;;7.90;94.40;;;;;;4948264;29;20054;-92
2021/04/10 10:13:50;;;;;;;12.43;7.10;;;8.00;94.40;;;;;;4949616;29;20039;-93
2021/04/10 10:16:28;;;;;;;11.95;7.60;;;8.00;94.40;;;;;;4944736;29;20023;-93
2021/04/10 10:18:54;;;;;;;12.27;7.47;;;8.00;94.40;;;;;;4954534;29;20081;-92
2021/04/10 10:21:22;;;;;;;12.57;7.43;;;8.00;94.10;;;;;;4934694;29;20032;-92
2021/04/10 10:23:56;;;;;;;10.85;7.30;;;7.90;94.10;;;;;;4935705;29;20023;-92
2021/04/10 10:26:24;;;;;;;11.32;7.38;;;7.90;94.00;;;;;;4934992;29;20031;-93
2021/04/10 10:29:01;;;;;;;12.30;7.82;;;7.90;94.20;;;;;;4926929;29;20035;-93
2021/04/10 10:31:29;;;;;;;11.57;6.93;;;7.90;94.10;;;;;;4935274;29;20036;-93
2021/04/10 10:34:04;;;;;;;12.80;7.40;;;7.90;94.20;;;;;;4943163;29;20038;-93
2021/04/10 10:36:33;;;;;;;13.00;6.38;;;7.90;93.90;;;;;;4934128;29;20023;-94
2021/04/10 10:38:59;;;;;;;12.05;7.32;;;7.90;93.60;;;;;;4927317;29;20027;-93
2021/04/10 10:41:25;;;;;;;12.88;6.88;;;7.90;93.50;;;;;;4934570;29;20043;-92
2021/04/10 10:43:51;;;;;;;15.05;7.85;;;8.00;93.70;;;;;;4938537;29;20025;-94
2021/04/10 10:46:18;;;;;;;12.75;7.88;;;8.00;93.50;;;;;;4939806;29;20141;-92
2021/04/10 10:48:47;;;;;;;12.13;8.00;;;7.90;93.40;;;;;;4936365;29;20031;-92
2021/04/10 10:51:15;;;;;;;11.30;7.50;;;7.80;93.50;;;;;;4938334;29;20477;-90
2021/04/10 10:53:46;;;;;;;11.70;7.63;;;7.80;93.70;;;;;;4936688;29;20039;-92
2021/04/10 10:56:13;;;;;;;25.65;7.72;;;7.70;93.70;;;;;;4953630;29;20616;-91
2021/04/10 10:58:51;;;;;;;11.02;6.85;;;7.60;93.70;;;;;;4950067;28;20118;-90
2021/04/10 11:01:19;;;;;;;10.85;6.70;;;7.50;93.90;;;;;;4935729;29;20043;-93
2021/04/10 11:03:49;;;;;;;14.05;7.22;;;7.40;94.00;;;;;;4938905;29;20035;-91
2021/04/10 11:06:20;;;;;;;14.95;7.20;;;7.30;94.00;;;;;;4937112;29;20556;-91
2021/04/10 11:08:46;;;;;;;13.50;7.10;;;7.30;94.20;;;;;;4938835;29;20035;-93
2021/04/10 11:11:13;;;;;;;12.35;6.90;;;7.30;94.30;;;;;;4939025;29;20077;-91
2021/04/10 11:13:45;;;;;;;13.13;6.80;;;7.20;94.30;;;;;;4955460;29;20114;-92
2021/04/10 11:16:11;;;;;;;8.85;5.53;;;7.30;94.40;;;;;;4938299;29;20034;-92
2021/04/10 11:18:37;;;;;;;9.35;5.63;;;7.20;94.20;;;;;;4940165;29;20027;-93
2021/04/10 11:21:19;;;;;;;13.07;6.05;;;7.20;94.10;;;;;;4939157;29;20417;-93
2021/04/10 11:23:59;;;;;;;9.25;6.07;;;7.10;94.00;;;;;;4944903;29;20042;-93
2021/04/10 11:26:39;;;;;;;7.00;5.25;;;7.10;94.00;;;;;;4939146;29;20031;-92
2021/04/10 11:29:38;;;;;;;18.02;6.18;;;7.10;94.00;;;;;;4937907;29;20066;-92
2021/04/10 11:32:24;;;;;;;9.70;5.68;;;7.10;94.10;;;;;;4912663;29;20605;-90
2021/04/10 11:34:49;;;;;;;11.63;5.25;;;7.20;94.20;;;;;;4938060;29;20171;-91
2021/04/10 11:37:18;;;;;;;7.38;5.03;;;7.20;94.20;;;;;;4937880;29;20538;-90
2021/04/10 11:40:04;;;;;;;9.32;5.43;;;7.30;94.30;;;;;;4937713;29;20129;-92
2021/04/10 11:42:30;;;;;;;9.80;5.28;;;7.40;94.10;;;;;;4955722;29;20045;-90
2021/04/10 11:45:10;;;;;;;7.95;4.90;;;7.50;94.00;;;;;;4942238;29;20122;-92
2021/04/10 11:47:40;;;;;;;6.60;4.35;;;7.60;93.70;;;;;;4942685;29;20086;-92
2021/04/10 11:50:18;;;;;;;9.70;4.68;;;7.60;93.60;;;;;;4945299;29;20054;-90
2021/04/10 11:52:46;;;;;;;8.95;4.75;;;7.70;93.40;;;;;;4944389;29;20035;-91
2021/04/10 11:55:11;;;;;;;10.68;4.88;;;7.80;93.00;;;;;;4943350;29;20031;-93
2021/04/10 11:57:41;;;;;;;6.57;4.10;;;7.90;92.90;;;;;;4940934;29;20097;-94
2021/04/10 12:00:10;;;;;;;7.30;3.95;;;7.90;92.60;;;;;;4952482;29;20094;-94
2021/04/10 12:02:44;;;;;;;7.55;4.15;;;8.00;92.40;;;;;;4930440;29;20035;-91
2021/04/10 12:05:22;;;;;;;6.40;3.40;;;8.10;92.10;;;;;;4938175;29;20614;-93
2021/04/10 12:08:14;;;;;;;7.75;4.13;;;8.20;92.00;;;;;;4936933;29;20063;-93
2021/04/10 12:10:53;;;;;;;7.57;4.38;;;8.40;91.50;;;;;;4952442;28;20047;-92
2021/04/10 12:13:20;;;;;;;8.25;4.10;;;8.50;90.80;;;;;;4956207;29;20027;-92
2021/04/10 12:15:54;;;;;;;6.28;3.83;;;8.60;90.60;;;;;;4938504;29;20643;-92
2021/04/10 12:18:22;;;;;;;7.15;3.75;;;8.70;90.30;;;;;;4932682;29;20030;-93
2021/04/10 12:20:48;;;;;;;10.77;3.80;;;8.90;90.00;;;;;;4941945;29;20493;-93
2021/04/10 12:23:14;;;;;;;7.57;4.10;;;9.10;89.00;;;;;;4955346;29;20034;-92
2021/04/10 12:25:40;;;;;;;7.55;3.13;;;9.20;87.80;;;;;;4939701;29;20035;-91
2021/04/10 12:28:06;;;;;;;5.57;3.22;;;9.50;86.90;;;;;;4939246;29;20158;-93
2021/04/10 12:30:41;;;;;;;5.20;2.90;;;9.80;85.70;;;;;;4946587;29;20024;-93
2021/04/10 12:33:07;;;;;;;6.40;3.13;;;10.00;83.10;;;;;;4946302;29;20041;-92
2021/04/10 12:35:33;;;;;;;5.60;3.33;;;10.40;81.50;;;;;;4949747;29;20035;-91
2021/04/10 12:37:58;;;;;;;8.02;3.42;;;10.80;79.80;;;;;;4937500;29;20028;-95
2021/04/10 12:40:25;;;;;;;6.72;3.30;;;11.10;79.40;;;;;;4950982;29;20051;-94
2021/04/10 12:42:51;;;;;;;6.18;3.28;;;11.60;79.00;;;;;;4942132;29;20110;-91
2021/04/10 12:45:17;;;;;;;6.60;3.08;;;11.90;76.50;;;;;;4937550;29;20023;-92
2021/04/10 12:47:43;;;;;;;6.93;3.40;;;12.00;75.30;;;;;;4948650;29;20024;-93
2021/04/10 12:50:10;;;;;;;7.60;3.33;;;12.10;74.30;;;;;;4933761;29;20113;-92
2021/04/10 12:52:37;;;;;;;5.43;3.28;;;12.10;73.90;;;;;;4959592;29;20031;-94
2021/04/10 12:55:05;;;;;;;5.43;3.00;;;12.20;73.20;;;;;;4956829;29;20063;-93